sensor_id;sensor_type;location;lat;lon;timestamp;pressure;altitude;pressure_sealevel;temperature;humidity
40596;BME280;26304;48.794;9.820;2022-08-07T00:00:11;96943.53;;;18.46;43.79
40596;BME280;26304;48.794;9.820;2022-08-07T00:05:54;96944.88;;;18.63;43.60
40596;BME280;26304;48.794;9.820;2022-08-07T00:11:38;96946.69;;;18.56;43.96
40596;BME280;26304;48.794;9.820;2022-08-07T00:17:20;96947.59;;;18.40;44.21
40596;BME280;26304;48.794;9.820;2022-08-07T00:23:03;96941.81;;;18.31;44.90
40596;BME280;26304;48.794;9.820;2022-08-07T00:28:48;96937.59;;;18.26;44.84
40596;BME280;26304;48.794;9.820;2022-08-07T00:34:31;96933.69;;;18.17;45.46
40596;BME280;26304;48.794;9.820;2022-08-07T00:40:14;96935.28;;;18.21;45.49
40596;BME280;26304;48.794;9.820;2022-08-07T00:45:58;96945.03;;;18.21;45.49
40596;BME280;26304;48.794;9.820;2022-08-07T00:51:41;96942.00;;;18.19;45.71
40596;BME280;26304;48.794;9.820;2022-08-07T00:57:24;96951.00;;;18.18;46.16
40596;BME280;26304;48.794;9.820;2022-08-07T01:03:08;96954.56;;;18.06;46.08
40596;BME280;26304;48.794;9.820;2022-08-07T01:08:51;96943.34;;;17.86;46.55
40596;BME280;26304;48.794;9.820;2022-08-07T01:14:33;96950.09;;;17.87;46.84
40596;BME280;26304;48.794;9.820;2022-08-07T01:20:21;96941.13;;;17.65;47.58
40596;BME280;26304;48.794;9.820;2022-08-07T01:26:08;96932.97;;;17.73;47.19
40596;BME280;26304;48.794;9.820;2022-08-07T01:31:53;96931.44;;;17.49;48.02
40596;BME280;26304;48.794;9.820;2022-08-07T01:37:36;96922.19;;;17.36;48.36
40596;BME280;26304;48.794;9.820;2022-08-07T01:43:20;96928.75;;;17.46;48.12
40596;BME280;26304;48.794;9.820;2022-08-07T01:49:03;96929.25;;;17.32;48.76
40596;BME280;26304;48.794;9.820;2022-08-07T01:54:46;96931.28;;;17.19;48.41
40596;BME280;26304;48.794;9.820;2022-08-07T02:00:34;96931.38;;;17.26;48.61
40596;BME280;26304;48.794;9.820;2022-08-07T02:06:18;96917.72;;;17.17;48.77
40596;BME280;26304;48.794;9.820;2022-08-07T02:12:04;96916.19;;;17.16;49.46
40596;BME280;26304;48.794;9.820;2022-08-07T02:18:00;96915.00;;;17.13;49.17
40596;BME280;26304;48.794;9.820;2022-08-07T02:23:43;96911.91;;;17.08;49.45
40596;BME280;26304;48.794;9.820;2022-08-07T02:29:27;96904.78;;;17.08;49.83
40596;BME280;26304;48.794;9.820;2022-08-07T02:35:12;96902.91;;;17.09;49.42
40596;BME280;26304;48.794;9.820;2022-08-07T02:40:59;96907.22;;;17.17;49.67
40596;BME280;26304;48.794;9.820;2022-08-07T02:46:43;96907.47;;;17.12;49.60
40596;BME280;26304;48.794;9.820;2022-08-07T02:52:36;96905.56;;;16.89;50.43
40596;BME280;26304;48.794;9.820;2022-08-07T02:58:21;96902.34;;;16.80;51.13
40596;BME280;26304;48.794;9.820;2022-08-07T03:04:04;96901.41;;;16.88;51.08
40596;BME280;26304;48.794;9.820;2022-08-07T03:09:49;96899.66;;;16.76;51.44
40596;BME280;26304;48.794;9.820;2022-08-07T03:15:32;96901.06;;;16.74;51.66
40596;BME280;26304;48.794;9.820;2022-08-07T03:21:16;96893.75;;;16.63;52.06
40596;BME280;26304;48.794;9.820;2022-08-07T03:27:02;96896.31;;;16.60;52.33
40596;BME280;26304;48.794;9.820;2022-08-07T03:32:48;96899.28;;;16.58;53.14
40596;BME280;26304;48.794;9.820;2022-08-07T03:38:33;96903.69;;;16.54;52.69
40596;BME280;26304;48.794;9.820;2022-08-07T03:44:18;96902.03;;;16.46;53.48
40596;BME280;26304;48.794;9.820;2022-08-07T03:50:01;96902.44;;;16.48;53.65
40596;BME280;26304;48.794;9.820;2022-08-07T03:55:44;96902.31;;;16.25;53.93
40596;BME280;26304;48.794;9.820;2022-08-07T04:01:28;96885.06;;;16.08;54.53
40596;BME280;26304;48.794;9.820;2022-08-07T04:07:14;96890.50;;;16.15;54.35
40596;BME280;26304;48.794;9.820;2022-08-07T04:12:57;96898.16;;;16.24;54.80
40596;BME280;26304;48.794;9.820;2022-08-07T04:18:41;96906.38;;;16.06;55.51
40596;BME280;26304;48.794;9.820;2022-08-07T04:24:24;96908.75;;;16.11;55.46
40596;BME280;26304;48.794;9.820;2022-08-07T04:30:08;96916.38;;;16.16;55.48
40596;BME280;26304;48.794;9.820;2022-08-07T04:35:52;96922.31;;;16.13;55.75
40596;BME280;26304;48.794;9.820;2022-08-07T04:41:35;96917.41;;;16.12;56.00
40596;BME280;26304;48.794;9.820;2022-08-07T04:47:21;96926.34;;;16.27;55.89
40596;BME280;26304;48.794;9.820;2022-08-07T04:53:16;96915.03;;;16.23;55.64
40596;BME280;26304;48.794;9.820;2022-08-07T04:59:05;96919.50;;;16.22;56.27
40596;BME280;26304;48.794;9.820;2022-08-07T05:04:55;96924.66;;;16.19;56.61
40596;BME280;26304;48.794;9.820;2022-08-07T05:10:44;96924.06;;;16.25;57.30
40596;BME280;26304;48.794;9.820;2022-08-07T05:16:30;96924.13;;;16.29;57.63
40596;BME280;26304;48.794;9.820;2022-08-07T05:22:15;96921.34;;;16.38;58.21
40596;BME280;26304;48.794;9.820;2022-08-07T05:28:01;96917.28;;;16.40;60.00
40596;BME280;26304;48.794;9.820;2022-08-07T05:33:46;96927.81;;;16.60;59.93
40596;BME280;26304;48.794;9.820;2022-08-07T05:39:30;96932.44;;;16.66;60.10
40596;BME280;26304;48.794;9.820;2022-08-07T05:45:14;96935.59;;;16.72;60.70
40596;BME280;26304;48.794;9.820;2022-08-07T05:50:59;96936.34;;;16.73;61.49
40596;BME280;26304;48.794;9.820;2022-08-07T05:56:43;96946.59;;;16.97;61.75
40596;BME280;26304;48.794;9.820;2022-08-07T06:02:29;96937.41;;;17.07;61.86
40596;BME280;26304;48.794;9.820;2022-08-07T06:08:13;96948.59;;;17.43;60.38
40596;BME280;26304;48.794;9.820;2022-08-07T06:13:57;96951.84;;;17.56;59.60
40596;BME280;26304;48.794;9.820;2022-08-07T06:19:41;96949.41;;;17.67;60.06
40596;BME280;26304;48.794;9.820;2022-08-07T06:25:24;96949.50;;;17.74;59.36
40596;BME280;26304;48.794;9.820;2022-08-07T06:31:07;96945.97;;;17.86;59.25
40596;BME280;26304;48.794;9.820;2022-08-07T06:36:51;96950.59;;;17.92;59.94
40596;BME280;26304;48.794;9.820;2022-08-07T06:42:35;96948.13;;;18.26;58.47
40596;BME280;26304;48.794;9.820;2022-08-07T06:48:18;96945.38;;;18.46;57.33
40596;BME280;26304;48.794;9.820;2022-08-07T06:54:02;96953.47;;;18.60;57.02
40596;BME280;26304;48.794;9.820;2022-08-07T06:59:46;96955.88;;;18.69;55.87
40596;BME280;26304;48.794;9.820;2022-08-07T07:05:29;96945.78;;;18.75;55.74
40596;BME280;26304;48.794;9.820;2022-08-07T07:11:13;96945.94;;;18.85;55.38
40596;BME280;26304;48.794;9.820;2022-08-07T07:16:59;96938.50;;;18.91;54.62
40596;BME280;26304;48.794;9.820;2022-08-07T07:22:44;96946.94;;;19.04;54.79
40596;BME280;26304;48.794;9.820;2022-08-07T07:28:33;96940.94;;;19.07;54.42
40596;BME280;26304;48.794;9.820;2022-08-07T07:34:26;96938.44;;;19.18;54.46
40596;BME280;26304;48.794;9.820;2022-08-07T07:40:15;96933.59;;;19.23;54.05
40596;BME280;26304;48.794;9.820;2022-08-07T07:46:01;96925.78;;;19.31;53.79
40596;BME280;26304;48.794;9.820;2022-08-07T07:51:46;96920.91;;;19.33;53.42
40596;BME280;26304;48.794;9.820;2022-08-07T07:57:30;96918.44;;;19.51;53.36
40596;BME280;26304;48.794;9.820;2022-08-07T08:03:18;96913.47;;;19.42;53.07
40596;BME280;26304;48.794;9.820;2022-08-07T08:09:04;96922.56;;;19.48;52.93
40596;BME280;26304;48.794;9.820;2022-08-07T08:14:48;96901.53;;;19.55;52.67
40596;BME280;26304;48.794;9.820;2022-08-07T08:20:33;96910.97;;;19.56;52.73
40596;BME280;26304;48.794;9.820;2022-08-07T08:26:17;96915.19;;;19.68;52.69
40596;BME280;26304;48.794;9.820;2022-08-07T08:32:20;96899.34;;;19.65;52.73
40596;BME280;26304;48.794;9.820;2022-08-07T08:38:07;96910.72;;;19.72;52.36
40596;BME280;26304;48.794;9.820;2022-08-07T08:43:58;96903.19;;;19.74;52.17
40596;BME280;26304;48.794;9.820;2022-08-07T08:49:48;96907.78;;;19.77;52.05
40596;BME280;26304;48.794;9.820;2022-08-07T08:55:37;96912.34;;;19.84;51.88
40596;BME280;26304;48.794;9.820;2022-08-07T09:01:26;96908.59;;;19.85;51.89
40596;BME280;26304;48.794;9.820;2022-08-07T09:07:16;96914.25;;;19.87;51.62
40596;BME280;26304;48.794;9.820;2022-08-07T09:13:05;96908.63;;;19.92;51.43
40596;BME280;26304;48.794;9.820;2022-08-07T09:19:09;96906.41;;;19.94;51.29
40596;BME280;26304;48.794;9.820;2022-08-07T09:24:58;96901.16;;;19.98;51.51
40596;BME280;26304;48.794;9.820;2022-08-07T09:30:54;96913.28;;;20.10;51.65
40596;BME280;26304;48.794;9.820;2022-08-07T09:36:42;96915.22;;;20.17;51.65
40596;BME280;26304;48.794;9.820;2022-08-07T09:42:37;96914.53;;;20.27;51.62
40596;BME280;26304;48.794;9.820;2022-08-07T09:48:36;96901.44;;;20.45;52.40
40596;BME280;26304;48.794;9.820;2022-08-07T09:54:27;96904.63;;;20.76;52.56
40596;BME280;26304;48.794;9.820;2022-08-07T10:00:12;96905.84;;;20.93;53.68
40596;BME280;26304;48.794;9.820;2022-08-07T10:12:25;96903.00;;;21.70;50.52
40596;BME280;26304;48.794;9.820;2022-08-07T10:18:35;96883.28;;;21.24;51.38
40596;BME280;26304;48.794;9.820;2022-08-07T10:24:49;96878.00;;;21.20;51.37
40596;BME280;26304;48.794;9.820;2022-08-07T10:30:42;96876.84;;;21.25;51.05
40596;BME280;26304;48.794;9.820;2022-08-07T10:36:39;96867.78;;;21.22;51.00
40596;BME280;26304;48.794;9.820;2022-08-07T10:42:34;96860.22;;;21.25;50.87
40596;BME280;26304;48.794;9.820;2022-08-07T10:48:37;96854.94;;;21.25;50.82
40596;BME280;26304;48.794;9.820;2022-08-07T10:54:29;96856.09;;;21.27;50.58
40596;BME280;26304;48.794;9.820;2022-08-07T11:00:14;96841.72;;;21.28;50.59
40596;BME280;26304;48.794;9.820;2022-08-07T11:06:07;96839.84;;;21.32;50.35
40596;BME280;26304;48.794;9.820;2022-08-07T11:11:57;96837.19;;;21.29;50.28
40596;BME280;26304;48.794;9.820;2022-08-07T11:17:47;96838.72;;;21.33;50.08
40596;BME280;26304;48.794;9.820;2022-08-07T11:23:36;96829.25;;;21.32;50.12
40596;BME280;26304;48.794;9.820;2022-08-07T11:29:26;96811.13;;;21.45;49.67
40596;BME280;26304;48.794;9.820;2022-08-07T11:35:13;96817.56;;;21.37;50.26
40596;BME280;26304;48.794;9.820;2022-08-07T11:41:01;96803.56;;;21.44;50.24
40596;BME280;26304;48.794;9.820;2022-08-07T11:46:53;96801.69;;;21.48;50.12
40596;BME280;26304;48.794;9.820;2022-08-07T11:52:51;96797.94;;;21.56;49.94
40596;BME280;26304;48.794;9.820;2022-08-07T11:58:46;96796.78;;;21.57;49.92
40596;BME280;26304;48.794;9.820;2022-08-07T12:04:41;96805.84;;;21.63;49.74
40596;BME280;26304;48.794;9.820;2022-08-07T12:10:32;96792.25;;;21.61;49.57
40596;BME280;26304;48.794;9.820;2022-08-07T12:16:21;96801.34;;;21.64;49.83
40596;BME280;26304;48.794;9.820;2022-08-07T12:22:07;96787.72;;;21.65;49.73
40596;BME280;26304;48.794;9.820;2022-08-07T12:28:04;96791.09;;;21.69;49.57
40596;BME280;26304;48.794;9.820;2022-08-07T12:33:52;96784.69;;;21.70;49.49
40596;BME280;26304;48.794;9.820;2022-08-07T12:39:36;96774.47;;;21.72;49.34
40596;BME280;26304;48.794;9.820;2022-08-07T12:45:25;96775.22;;;21.73;49.30
40596;BME280;26304;48.794;9.820;2022-08-07T12:51:11;96763.88;;;21.76;49.39
40596;BME280;26304;48.794;9.820;2022-08-07T12:56:55;96759.69;;;21.89;48.99
40596;BME280;26304;48.794;9.820;2022-08-07T13:03:06;96768.03;;;21.88;49.25
40596;BME280;26304;48.794;9.820;2022-08-07T13:09:00;96755.53;;;21.95;48.72
40596;BME280;26304;48.794;9.820;2022-08-07T13:14:50;96757.03;;;21.93;49.25
40596;BME280;26304;48.794;9.820;2022-08-07T13:20:43;96739.59;;;22.06;48.79
40596;BME280;26304;48.794;9.820;2022-08-07T13:26:33;96735.41;;;22.12;49.32
40596;BME280;26304;48.794;9.820;2022-08-07T13:32:22;96725.53;;;22.24;50.10
40596;BME280;26304;48.794;9.820;2022-08-07T13:38:12;96725.91;;;22.29;50.19
40596;BME280;26304;48.794;9.820;2022-08-07T13:44:01;96712.66;;;22.33;49.80
40596;BME280;26304;48.794;9.820;2022-08-07T13:49:46;96711.91;;;22.33;49.73
40596;BME280;26304;48.794;9.820;2022-08-07T13:55:29;96715.66;;;22.35;49.36
40596;BME280;26304;48.794;9.820;2022-08-07T14:01:15;96699.75;;;22.35;49.31
40596;BME280;26304;48.794;9.820;2022-08-07T14:07:04;96708.03;;;22.48;48.99
40596;BME280;26304;48.794;9.820;2022-08-07T14:12:49;96695.56;;;22.41;48.96
40596;BME280;26304;48.794;9.820;2022-08-07T14:18:39;96698.59;;;22.43;49.15
40596;BME280;26304;48.794;9.820;2022-08-07T14:24:28;96682.31;;;22.48;48.80
40596;BME280;26304;48.794;9.820;2022-08-07T14:30:12;96680.75;;;22.55;48.78
40596;BME280;26304;48.794;9.820;2022-08-07T14:35:57;96675.44;;;22.55;48.97
40596;BME280;26304;48.794;9.820;2022-08-07T14:41:42;96681.06;;;22.60;48.67
40596;BME280;26304;48.794;9.820;2022-08-07T14:47:29;96676.56;;;22.61;48.73
40596;BME280;26304;48.794;9.820;2022-08-07T14:53:15;96668.22;;;22.59;48.92
40596;BME280;26304;48.794;9.820;2022-08-07T14:59:02;96670.31;;;22.29;49.51
40596;BME280;26304;48.794;9.820;2022-08-07T15:04:47;96672.88;;;22.37;49.65
40596;BME280;26304;48.794;9.820;2022-08-07T15:10:31;96665.69;;;22.41;49.80
40596;BME280;26304;48.794;9.820;2022-08-07T15:16:15;96666.44;;;22.45;50.18
40596;BME280;26304;48.794;9.820;2022-08-07T15:22:01;96661.84;;;22.49;49.66
40596;BME280;26304;48.794;9.820;2022-08-07T15:27:51;96650.13;;;22.50;49.89
40596;BME280;26304;48.794;9.820;2022-08-07T15:33:38;96657.25;;;22.57;50.18
40596;BME280;26304;48.794;9.820;2022-08-07T15:39:22;96647.78;;;22.56;50.31
40596;BME280;26304;48.794;9.820;2022-08-07T15:45:11;96656.41;;;22.71;51.09
40596;BME280;26304;48.794;9.820;2022-08-07T15:50:59;96647.22;;;22.82;51.62
40596;BME280;26304;48.794;9.820;2022-08-07T15:56:48;96638.06;;;22.91;51.97
40596;BME280;26304;48.794;9.820;2022-08-07T16:02:39;96638.13;;;22.83;51.93
40596;BME280;26304;48.794;9.820;2022-08-07T16:08:24;96638.13;;;22.83;52.12
40596;BME280;26304;48.794;9.820;2022-08-07T16:14:12;96638.84;;;22.88;51.71
40596;BME280;26304;48.794;9.820;2022-08-07T16:20:18;96632.41;;;22.89;51.84
40596;BME280;26304;48.794;9.820;2022-08-07T16:26:13;96626.69;;;22.94;51.63
40596;BME280;26304;48.794;9.820;2022-08-07T16:32:01;96633.06;;;23.00;51.25
40596;BME280;26304;48.794;9.820;2022-08-07T16:38:00;96622.06;;;23.01;51.53
40596;BME280;26304;48.794;9.820;2022-08-07T16:44:00;96626.63;;;23.01;51.06
40596;BME280;26304;48.794;9.820;2022-08-07T16:50:14;96625.44;;;23.09;51.49
40596;BME280;26304;48.794;9.820;2022-08-07T16:56:08;96628.84;;;23.06;51.71
40596;BME280;26304;48.794;9.820;2022-08-07T17:01:58;96625.75;;;23.15;51.28
40596;BME280;26304;48.794;9.820;2022-08-07T17:07:46;96619.34;;;23.12;51.03
40596;BME280;26304;48.794;9.820;2022-08-07T17:13:43;96632.91;;;23.21;50.65
40596;BME280;26304;48.794;9.820;2022-08-07T17:19:33;96631.03;;;23.18;51.00
40596;BME280;26304;48.794;9.820;2022-08-07T17:25:18;96626.38;;;23.30;50.91
40596;BME280;26304;48.794;9.820;2022-08-07T17:31:08;96625.19;;;23.34;50.97
40596;BME280;26304;48.794;9.820;2022-08-07T17:36:53;96636.53;;;23.35;50.69
40596;BME280;26304;48.794;9.820;2022-08-07T17:42:43;96649.75;;;23.38;50.17
40596;BME280;26304;48.794;9.820;2022-08-07T17:48:32;96646.97;;;23.15;43.29
40596;BME280;26304;48.794;9.820;2022-08-07T17:54:23;96637.53;;;23.07;41.33
40596;BME280;26304;48.794;9.820;2022-08-07T18:00:11;96640.91;;;23.14;39.53
40596;BME280;26304;48.794;9.820;2022-08-07T18:06:03;96644.69;;;23.17;39.17
40596;BME280;26304;48.794;9.820;2022-08-07T18:11:50;96648.53;;;23.05;39.07
40596;BME280;26304;48.794;9.820;2022-08-07T18:17:36;96653.91;;;22.98;38.67
40596;BME280;26304;48.794;9.820;2022-08-07T18:23:38;96659.94;;;23.02;38.48
40596;BME280;26304;48.794;9.820;2022-08-07T18:29:29;96661.50;;;22.96;38.28
40596;BME280;26304;48.794;9.820;2022-08-07T18:35:20;96670.22;;;22.93;38.34
40596;BME280;26304;48.794;9.820;2022-08-07T18:41:10;96688.75;;;23.00;38.12
40596;BME280;26304;48.794;9.820;2022-08-07T18:47:02;96690.31;;;22.94;38.09
40596;BME280;26304;48.794;9.820;2022-08-07T18:53:02;96693.63;;;22.53;36.94
40596;BME280;26304;48.794;9.820;2022-08-07T18:58:58;96705.75;;;22.50;36.55
40596;BME280;26304;48.794;9.820;2022-08-07T19:04:54;96704.97;;;22.49;36.50
40596;BME280;26304;48.794;9.820;2022-08-07T19:10:42;96720.94;;;22.42;36.58
40596;BME280;26304;48.794;9.820;2022-08-07T19:16:33;96727.63;;;22.65;36.22
40596;BME280;26304;48.794;9.820;2022-08-07T19:22:21;96731.47;;;22.49;36.04
40596;BME280;26304;48.794;9.820;2022-08-07T19:28:06;96748.91;;;22.47;35.91
40596;BME280;26304;48.794;9.820;2022-08-07T19:33:56;96756.88;;;22.43;35.67
40596;BME280;26304;48.794;9.820;2022-08-07T19:39:43;96772.44;;;22.34;36.79
40596;BME280;26304;48.794;9.820;2022-08-07T19:45:26;96784.53;;;22.39;37.44
40596;BME280;26304;48.794;9.820;2022-08-07T19:51:14;96777.75;;;22.34;37.16
40596;BME280;26304;48.794;9.820;2022-08-07T19:57:00;96773.19;;;22.24;37.01
40596;BME280;26304;48.794;9.820;2022-08-07T20:02:46;96767.94;;;22.17;37.24
40596;BME280;26304;48.794;9.820;2022-08-07T20:08:36;96766.03;;;22.17;36.79
40596;BME280;26304;48.794;9.820;2022-08-07T20:14:25;96767.56;;;22.18;36.50
40596;BME280;26304;48.794;9.820;2022-08-07T20:20:09;96758.19;;;21.88;36.80
40596;BME280;26304;48.794;9.820;2022-08-07T20:26:01;96754.44;;;21.71;37.11
40596;BME280;26304;48.794;9.820;2022-08-07T20:31:46;96752.94;;;21.63;37.33
40596;BME280;26304;48.794;9.820;2022-08-07T20:37:31;96746.91;;;21.48;37.66
40596;BME280;26304;48.794;9.820;2022-08-07T20:43:16;96737.47;;;21.40;37.63
40596;BME280;26304;48.794;9.820;2022-08-07T20:49:00;96732.94;;;21.26;37.76
40596;BME280;26304;48.794;9.820;2022-08-07T20:54:47;96740.88;;;21.19;37.67
40596;BME280;26304;48.794;9.820;2022-08-07T21:00:34;96738.59;;;21.17;37.82
40596;BME280;26304;48.794;9.820;2022-08-07T21:06:18;96728.75;;;21.11;37.87
40596;BME280;26304;48.794;9.820;2022-08-07T21:12:04;96726.50;;;21.05;38.17
40596;BME280;26304;48.794;9.820;2022-08-07T21:17:50;96729.13;;;20.95;38.25
40596;BME280;26304;48.794;9.820;2022-08-07T21:23:42;96733.31;;;20.92;38.12
40596;BME280;26304;48.794;9.820;2022-08-07T21:29:29;96724.22;;;20.86;38.34
40596;BME280;26304;48.794;9.820;2022-08-07T21:35:20;96728.75;;;20.75;38.46
40596;BME280;26304;48.794;9.820;2022-08-07T21:41:08;96735.16;;;20.74;38.48
40596;BME280;26304;48.794;9.820;2022-08-07T21:47:00;96745.28;;;20.61;39.79
40596;BME280;26304;48.794;9.820;2022-08-07T21:52:53;96742.28;;;20.55;39.57
40596;BME280;26304;48.794;9.820;2022-08-07T21:58:41;96752.06;;;20.51;39.48
40596;BME280;26304;48.794;9.820;2022-08-07T22:04:30;96747.53;;;20.41;40.74
40596;BME280;26304;48.794;9.820;2022-08-07T22:10:22;96746.00;;;20.36;40.41
40596;BME280;26304;48.794;9.820;2022-08-07T22:16:08;96754.97;;;20.24;40.53
40596;BME280;26304;48.794;9.820;2022-08-07T22:21:57;96763.25;;;20.19;40.65
40596;BME280;26304;48.794;9.820;2022-08-07T22:27:48;96752.69;;;20.16;40.61
40596;BME280;26304;48.794;9.820;2022-08-07T22:33:35;96763.56;;;20.00;40.81
40596;BME280;26304;48.794;9.820;2022-08-07T22:39:27;96759.38;;;19.91;40.54
40596;BME280;26304;48.794;9.820;2022-08-07T22:45:13;96757.13;;;19.93;40.49
40596;BME280;26304;48.794;9.820;2022-08-07T22:51:16;96761.56;;;19.82;40.51
40596;BME280;26304;48.794;9.820;2022-08-07T22:57:11;96751.69;;;19.72;40.81
40596;BME280;26304;48.794;9.820;2022-08-07T23:03:15;96760.75;;;19.74;40.69
40596;BME280;26304;48.794;9.820;2022-08-07T23:09:15;96753.91;;;19.66;41.28
40596;BME280;26304;48.794;9.820;2022-08-07T23:15:09;96753.84;;;19.55;41.84
40596;BME280;26304;48.794;9.820;2022-08-07T23:21:05;96753.81;;;19.48;42.12
40596;BME280;26304;48.794;9.820;2022-08-07T23:27:05;96751.50;;;19.43;42.39
40596;BME280;26304;48.794;9.820;2022-08-07T23:33:11;96752.94;;;19.37;42.90
40596;BME280;26304;48.794;9.820;2022-08-07T23:39:05;96758.19;;;19.33;42.72
40596;BME280;26304;48.794;9.820;2022-08-07T23:45:04;96758.88;;;19.19;43.43
40596;BME280;26304;48.794;9.820;2022-08-07T23:50:50;96752.03;;;19.15;43.44
40596;BME280;26304;48.794;9.820;2022-08-07T23:56:42;96755.69;;;19.03;44.34
